Portada
METAR-TAF:

METAR-TAF

Aeroports :

Pago Pago, Illes Perifèriques Menors dels EUA

latitud: 14-20S, longitud: 170-43W, altitud: 3 m

Observació

L'informe es va fer fa 1 hora i 2 minuts, a les 16:50 UTC
Vent calma
Temperatura 25°C
Humitat 89%
Pressió 1011 hPa
Visibilitat: 19.3 km
Escasses núvols a una alçada de 1800 ft
Núvols disperses a una alçada de 4000 ft

METAR: NSTU 231650Z 00000KT 12SM FEW018 SCT040 25/23 A2985 RMK SLP108 T02490230

Hora: 06:52 (17:52 UTC)

Pronòstic

L'informe es va fer fa 21 minuts, a les 17:31 UTC
Pronòstic vàlid del 23 a les 18 UTC al 24 a les 18 UTC
Vent 9 kt del Est
Visibilitat: 10 km
Núvols disperses a una alçada de 1800 ft
Núvols disperses a una alçada de 4000 ft

TAF: NSTU 231731Z 2318/2418 10009KT P6SM SCT018 SCT040

Observacions i pronòstics meteorològics de més de 4000 aeroports (METAR i TAF).

Les estacions disponibles són els punts grocs i vermells al mapa.

Posi el ratolí al punt desitjat per veure el nom de l'estació.

Feu clic per veure les observacions i els pronòstics meteorològics.

Per canviar el mapa: feu clic els botons verds amb una creu de color negre per apropar; al botó verd amb un guió per allunyar la imatge; o en les fletxes verdes per a mapes adjacents.


METAR-TAF: